createdAt,value
2023-03-02T00:12:45.802Z,0.97
2023-03-02T00:32:45.930Z,0.69
2023-03-02T00:52:45.838Z,0.54
2023-03-02T01:12:45.874Z,0.43
2023-03-02T01:32:45.918Z,0.44
2023-03-02T01:52:45.719Z,0.43
2023-03-02T02:12:45.877Z,0.42
2023-03-02T02:32:45.889Z,0.36
2023-03-02T02:52:45.728Z,0.19
2023-03-02T03:12:45.735Z,-0.02
2023-03-02T03:32:45.722Z,-0.08
2023-03-02T03:52:45.816Z,-0.13
2023-03-02T04:12:45.737Z,-0.14
2023-03-02T04:32:45.735Z,-0.23
2023-03-02T04:52:45.744Z,-0.17
2023-03-02T05:12:45.745Z,-0.30
2023-03-02T05:32:45.756Z,-0.44
2023-03-02T05:52:45.756Z,-0.36
2023-03-02T06:12:45.784Z,-0.30
2023-03-02T06:32:45.777Z,-0.20
2023-03-02T06:52:45.810Z,0.06
2023-03-02T07:12:45.775Z,0.31
2023-03-02T07:32:45.878Z,0.69
2023-03-02T07:52:49.006Z,1.52
2023-03-02T08:12:45.892Z,2.09
2023-03-02T08:32:45.807Z,2.74
2023-03-02T08:52:45.816Z,3.28
2023-03-02T09:12:45.807Z,3.84
2023-03-02T09:32:45.888Z,4.48
2023-03-02T09:52:45.945Z,5.37
2023-03-02T10:12:45.841Z,6.35
2023-03-02T10:32:45.859Z,6.91
2023-03-02T10:52:45.848Z,7.38
2023-03-02T11:12:45.755Z,8.10
2023-03-02T11:32:45.778Z,8.87
2023-03-02T11:52:45.794Z,9.34
2023-03-02T12:12:45.989Z,9.66
2023-03-02T12:32:45.875Z,9.99
2023-03-02T12:52:45.824Z,10.44
2023-03-02T13:12:45.928Z,10.81
2023-03-02T13:32:45.752Z,10.93
2023-03-02T13:52:45.674Z,11.10
2023-03-02T14:12:45.771Z,10.75
2023-03-02T14:32:45.672Z,10.66
2023-03-02T14:52:45.603Z,10.59
2023-03-02T15:12:45.615Z,10.44
2023-03-02T15:32:45.640Z,10.12
2023-03-02T15:52:45.655Z,9.99
2023-03-02T16:12:45.578Z,9.48
2023-03-02T16:32:45.589Z,7.74
2023-03-02T16:52:45.676Z,6.67
2023-03-02T17:12:45.635Z,5.86
2023-03-02T17:32:45.509Z,5.11
2023-03-02T17:52:45.522Z,4.51
2023-03-02T18:12:45.637Z,4.07
2023-03-02T18:32:45.526Z,3.81
2023-03-02T18:52:45.530Z,3.59
2023-03-02T19:12:45.632Z,3.38
2023-03-02T19:32:45.545Z,3.20
2023-03-02T19:52:45.575Z,3.00
2023-03-02T20:12:45.581Z,2.81
2023-03-02T20:32:45.620Z,2.71
2023-03-02T20:52:45.569Z,2.47
2023-03-02T21:12:45.559Z,2.22
2023-03-02T21:32:45.665Z,2.08
2023-03-02T21:52:45.559Z,2.00
2023-03-02T22:12:45.584Z,1.83
2023-03-02T22:32:45.560Z,1.60
2023-03-02T22:52:45.621Z,1.60
2023-03-02T23:12:45.578Z,1.56
2023-03-02T23:32:45.632Z,1.64
2023-03-02T23:52:45.576Z,1.45
